Time;durP1;ratioP1;P1;durP2;ratioP2;P2;SDS_P1;SDS_P2;PMS_P1;PMS_P2;Temp;Humidity;BMP_temperature;BMP_pressure;BME280_temperature;BME280_humidity;BME280_pressure;Samples;Min_cycle;Max_cycle;Signal;HPM_P1;HPM_P2
2022/11/14 00:00:56;;;;;;;82.10;27.10;;;10.30;99.90;;;;;;5016283;28;20045;-58
2022/11/14 00:03:42;;;;;;;86.53;27.35;;;10.30;99.90;;;;;;5019694;28;20425;-59
2022/11/14 00:06:28;;;;;;;84.15;27.40;;;10.20;99.90;;;;;;5018689;28;20057;-75
2022/11/14 00:09:14;;;;;;;80.35;26.60;;;10.20;99.90;;;;;;5023278;28;20473;-66
2022/11/14 00:12:00;;;;;;;84.97;28.95;;;10.20;99.90;;;;;;5025354;28;20482;-61
2022/11/14 00:14:47;;;;;;;79.30;26.75;;;10.10;99.90;;;;;;5011183;28;20050;-74
2022/11/14 00:17:33;;;;;;;92.50;27.73;;;;;;;;;;5012969;28;20045;-72
2022/11/14 00:20:20;;;;;;;81.22;25.58;;;10.10;99.90;;;;;;5006385;28;20046;-68
2022/11/14 00:23:06;;;;;;;85.10;25.80;;;10.10;99.90;;;;;;5018733;28;20050;-64
2022/11/14 00:25:52;;;;;;;84.80;28.50;;;10.00;99.90;;;;;;5018817;28;20060;-68
2022/11/14 00:28:38;;;;;;;87.35;27.98;;;10.10;99.90;;;;;;5024862;28;20046;-65
2022/11/14 00:31:24;;;;;;;97.82;29.25;;;10.10;99.90;;;;;;5023678;28;20441;-65
2022/11/14 00:34:10;;;;;;;87.80;28.67;;;10.10;99.90;;;;;;5016102;28;20049;-69
2022/11/14 00:36:56;;;;;;;96.05;28.63;;;10.00;99.90;;;;;;5007451;28;20520;-71
2022/11/14 00:39:42;;;;;;;102.90;29.23;;;10.00;99.90;;;;;;5018520;28;20053;-75
2022/11/14 00:42:29;;;;;;;102.22;30.02;;;10.10;99.90;;;;;;5016141;28;20544;-75
2022/11/14 00:45:15;;;;;;;110.60;30.95;;;10.10;99.90;;;;;;5019555;28;20064;-69
2022/11/14 00:48:02;;;;;;;101.97;30.38;;;10.10;99.90;;;;;;5025551;28;20057;-75
2022/11/14 00:50:49;;;;;;;104.03;31.17;;;10.10;99.90;;;;;;5028002;28;20049;-66
2022/11/14 00:53:35;;;;;;;108.45;31.75;;;10.10;99.90;;;;;;5026121;28;20067;-75
2022/11/14 00:56:22;;;;;;;112.15;34.33;;;10.20;99.90;;;;;;5022243;28;20056;-72
2022/11/14 00:59:08;;;;;;;107.60;31.20;;;10.20;99.90;;;;;;5020308;28;20054;-75
2022/11/14 01:01:54;;;;;;;124.97;35.70;;;10.20;99.90;;;;;;5010181;28;20049;-69
2022/11/14 01:04:43;;;;;;;121.57;34.25;;;10.20;99.90;;;;;;5018419;28;20046;-76
2022/11/14 01:07:29;;;;;;;108.38;31.52;;;10.30;99.90;;;;;;5015422;28;20493;-75
2022/11/14 01:10:16;;;;;;;122.63;32.40;;;10.30;99.90;;;;;;5012154;28;20080;-74
2022/11/14 01:13:03;;;;;;;117.28;32.50;;;10.30;99.90;;;;;;5029548;28;20049;-73
2022/11/14 01:15:49;;;;;;;125.57;31.88;;;10.30;99.90;;;;;;5028912;28;20120;-62
2022/11/14 01:18:38;;;;;;;114.43;33.17;;;10.30;99.90;;;;;;5019836;28;20049;-61
2022/11/14 01:21:25;;;;;;;109.55;28.83;;;10.30;99.90;;;;;;5028874;28;20046;-59
2022/11/14 01:24:10;;;;;;;118.65;33.88;;;10.30;99.90;;;;;;5028989;28;20596;-65
2022/11/14 01:26:56;;;;;;;117.78;33.50;;;10.30;99.90;;;;;;5015115;28;20061;-61
2022/11/14 01:29:42;;;;;;;108.05;31.40;;;10.30;99.90;;;;;;5025833;28;20033;-61
2022/11/14 01:32:30;;;;;;;117.88;31.38;;;10.30;99.90;;;;;;5024248;28;20387;-62
2022/11/14 01:35:19;;;;;;;104.93;29.08;;;10.30;99.90;;;;;;5013547;28;20409;-64
2022/11/14 01:38:05;;;;;;;114.60;30.23;;;10.30;99.90;;;;;;5011820;28;20429;-63
2022/11/14 01:40:51;;;;;;;114.28;31.08;;;10.30;99.90;;;;;;5025009;28;20053;-59
2022/11/14 01:43:38;;;;;;;114.63;32.20;;;10.30;99.90;;;;;;5027837;28;20553;-59
2022/11/14 01:46:32;;;;;;;121.07;32.40;;;10.30;99.90;;;;;;5019141;28;20049;-60
2022/11/14 01:49:27;;;;;;;115.63;31.75;;;10.30;99.90;;;;;;5012943;28;20040;-61
2022/11/14 01:52:21;;;;;;;105.93;31.00;;;10.30;99.90;;;;;;5024765;28;20037;-60
2022/11/14 01:55:09;;;;;;;115.50;31.08;;;10.30;99.90;;;;;;5014583;28;20037;-59
2022/11/14 01:57:57;;;;;;;113.10;29.90;;;10.30;99.90;;;;;;5020874;28;20413;-61
2022/11/14 02:00:43;;;;;;;116.38;30.92;;;10.20;99.90;;;;;;5012352;28;20057;-60
2022/11/14 02:03:32;;;;;;;128.65;32.25;;;10.20;99.90;;;;;;5015746;28;20033;-60
2022/11/14 02:06:21;;;;;;;103.90;27.52;;;10.20;99.90;;;;;;5013131;28;20056;-65
2022/11/14 02:09:07;;;;;;;119.43;31.80;;;10.20;99.90;;;;;;5015529;28;20045;-68
2022/11/14 02:11:55;;;;;;;125.32;31.13;;;10.20;99.90;;;;;;5016381;28;20397;-63
2022/11/14 02:14:46;;;;;;;128.63;33.28;;;10.30;99.90;;;;;;5022243;28;20045;-65
2022/11/14 02:17:33;;;;;;;124.10;31.80;;;10.30;99.90;;;;;;5006506;28;20056;-65
2022/11/14 02:20:27;;;;;;;117.78;33.88;;;10.30;99.90;;;;;;5023056;28;20061;-68
2022/11/14 02:23:16;;;;;;;117.95;29.98;;;10.30;99.90;;;;;;5021110;28;20052;-61
2022/11/14 02:26:02;;;;;;;118.85;30.70;;;10.30;99.90;;;;;;5024921;28;20052;-64
2022/11/14 02:28:49;;;;;;;106.25;28.42;;;10.30;99.90;;;;;;5025098;28;20053;-60
2022/11/14 02:31:34;;;;;;;95.78;28.35;;;10.30;99.90;;;;;;5019416;28;20044;-59
2022/11/14 02:34:21;;;;;;;111.35;27.23;;;10.30;99.90;;;;;;5017375;28;20038;-59
2022/11/14 02:37:07;;;;;;;107.78;28.33;;;;;;;;;;5015267;28;20038;-60
2022/11/14 02:39:53;;;;;;;101.55;26.92;;;10.30;99.90;;;;;;5018608;28;20071;-59
2022/11/14 02:42:39;;;;;;;111.70;26.63;;;10.30;99.90;;;;;;5009203;28;20041;-59
2022/11/14 02:45:26;;;;;;;110.68;27.80;;;10.30;99.90;;;;;;5020899;28;20658;-59
2022/11/14 02:48:12;;;;;;;95.88;27.02;;;10.20;99.90;;;;;;5014552;28;20054;-59
2022/11/14 02:50:58;;;;;;;107.43;27.85;;;10.20;99.90;;;;;;5019040;28;20065;-59
2022/11/14 02:53:44;;;;;;;106.05;26.83;;;10.30;99.90;;;;;;5024957;28;20038;-59
2022/11/14 02:56:31;;;;;;;105.93;26.30;;;10.30;99.90;;;;;;5021995;28;20049;-59
2022/11/14 02:59:17;;;;;;;113.25;27.65;;;10.30;99.90;;;;;;5013265;28;20034;-59
2022/11/14 03:02:03;;;;;;;111.93;28.80;;;10.30;99.90;;;;;;5015486;28;20042;-62
2022/11/14 03:04:49;;;;;;;109.75;27.85;;;10.30;99.90;;;;;;5009441;28;20061;-59
2022/11/14 03:07:35;;;;;;;97.60;25.30;;;10.40;99.90;;;;;;5022282;28;20037;-59
2022/11/14 03:10:22;;;;;;;108.97;27.05;;;10.30;99.90;;;;;;5015218;28;20033;-59
2022/11/14 03:13:08;;;;;;;99.47;26.20;;;10.40;99.90;;;;;;5027579;28;20057;-59
2022/11/14 03:15:55;;;;;;;113.13;28.25;;;10.40;99.90;;;;;;5014686;28;20037;-59
2022/11/14 03:18:41;;;;;;;110.63;27.33;;;10.40;99.90;;;;;;5018239;28;20044;-59
2022/11/14 03:21:27;;;;;;;104.13;25.90;;;10.40;99.90;;;;;;5025283;28;20405;-63
2022/11/14 03:24:13;;;;;;;115.78;28.35;;;10.50;99.90;;;;;;5017437;28;20688;-62
2022/11/14 03:26:59;;;;;;;112.35;28.10;;;10.50;99.90;;;;;;5008674;28;20041;-59
2022/11/14 03:29:47;;;;;;;107.38;27.23;;;10.50;99.90;;;;;;5023291;28;20041;-59
2022/11/14 03:32:33;;;;;;;94.57;26.02;;;10.50;99.90;;;;;;5012974;28;20055;-59
2022/11/14 03:35:19;;;;;;;109.82;26.95;;;10.50;99.90;;;;;;5017741;28;20042;-59
2022/11/14 03:38:05;;;;;;;100.63;27.10;;;10.50;99.90;;;;;;5011655;28;20049;-59
2022/11/14 03:40:52;;;;;;;103.93;28.25;;;10.50;99.90;;;;;;5025700;28;20052;-59
2022/11/14 03:43:38;;;;;;;104.25;29.02;;;10.50;99.90;;;;;;5011873;28;20050;-59
2022/11/14 03:46:24;;;;;;;111.55;29.88;;;10.50;99.90;;;;;;5028600;28;20041;-62
2022/11/14 03:49:10;;;;;;;102.00;29.15;;;10.50;99.90;;;;;;5029822;28;20044;-76
2022/11/14 03:51:56;;;;;;;107.20;28.85;;;10.50;99.90;;;;;;5017579;28;20041;-75
2022/11/14 03:54:42;;;;;;;113.32;28.98;;;10.50;99.90;;;;;;5017052;28;20065;-75
2022/11/14 03:57:29;;;;;;;103.80;27.65;;;10.50;99.90;;;;;;5030502;28;20502;-73
2022/11/14 04:00:15;;;;;;;111.57;28.48;;;10.50;99.90;;;;;;5026667;28;20513;-59
2022/11/14 04:03:01;;;;;;;106.45;27.27;;;10.50;99.90;;;;;;5020605;28;20042;-59
2022/11/14 04:05:47;;;;;;;123.82;30.45;;;10.50;99.90;;;;;;5029162;28;20397;-63
2022/11/14 04:08:34;;;;;;;117.95;29.83;;;10.50;99.90;;;;;;5013736;28;20037;-60
2022/11/14 04:11:20;;;;;;;126.22;28.90;;;10.50;99.90;;;;;;5028896;28;20512;-59
2022/11/14 04:14:08;;;;;;;118.32;30.42;;;10.50;99.90;;;;;;5010849;28;20410;-59
2022/11/14 04:16:54;;;;;;;110.45;29.42;;;;;;;;;;5034238;28;20409;-59
2022/11/14 04:19:40;;;;;;;125.40;29.05;;;10.50;99.90;;;;;;5034402;28;20048;-59
2022/11/14 04:22:26;;;;;;;103.53;28.55;;;10.50;99.90;;;;;;5027661;28;20034;-61
2022/11/14 04:25:12;;;;;;;121.20;30.98;;;10.50;99.90;;;;;;5032060;28;20045;-65
2022/11/14 04:27:58;;;;;;;109.72;29.60;;;10.50;99.90;;;;;;5035195;28;20045;-59
2022/11/14 04:30:44;;;;;;;117.50;28.80;;;10.50;99.90;;;;;;5021399;28;20050;-60
2022/11/14 04:33:31;;;;;;;103.30;28.75;;;10.50;99.90;;;;;;5033961;28;20048;-63
2022/11/14 04:36:17;;;;;;;109.05;28.15;;;10.50;99.90;;;;;;5031869;28;20045;-60
2022/11/14 04:39:03;;;;;;;113.45;32.17;;;10.50;99.90;;;;;;5014939;28;20052;-62
2022/11/14 04:41:49;;;;;;;113.00;30.90;;;10.50;99.90;;;;;;5014515;28;20402;-69
2022/11/14 04:44:35;;;;;;;108.15;26.38;;;10.50;99.90;;;;;;5019644;28;20049;-68
2022/11/14 04:47:21;;;;;;;116.18;30.45;;;10.50;99.90;;;;;;5033489;28;20056;-62
2022/11/14 04:50:07;;;;;;;113.60;27.23;;;10.50;99.90;;;;;;5033788;28;20481;-68
2022/11/14 04:52:54;;;;;;;128.85;31.48;;;10.50;99.90;;;;;;5027438;28;20050;-62
2022/11/14 04:55:40;;;;;;;115.55;28.58;;;10.50;99.90;;;;;;5032748;28;20053;-63
2022/11/14 04:58:27;;;;;;;122.35;32.22;;;10.50;99.90;;;;;;5034504;28;20045;-62
2022/11/14 05:01:13;;;;;;;105.55;28.67;;;10.50;99.90;;;;;;5031800;28;20064;-64
2022/11/14 05:04:00;;;;;;;126.13;30.38;;;10.50;99.90;;;;;;5033720;28;20052;-59
2022/11/14 05:06:45;;;;;;;125.93;31.08;;;10.50;99.90;;;;;;5031116;28;20037;-68
2022/11/14 05:09:32;;;;;;;119.55;30.92;;;10.50;99.90;;;;;;5032615;28;20045;-60
2022/11/14 05:12:18;;;;;;;126.47;32.22;;;10.50;99.90;;;;;;5017830;28;20038;-60
2022/11/14 05:15:04;;;;;;;130.70;31.42;;;10.50;99.90;;;;;;5022168;28;20539;-66
2022/11/14 05:17:50;;;;;;;129.57;32.53;;;10.50;99.90;;;;;;5019510;28;20042;-62
2022/11/14 05:20:37;;;;;;;126.07;31.95;;;10.50;99.90;;;;;;5031225;28;20049;-65
2022/11/14 05:23:23;;;;;;;146.27;30.25;;;10.50;99.90;;;;;;5027561;28;20034;-60
2022/11/14 05:26:13;;;;;;;124.72;30.13;;;10.50;99.90;;;;;;5022426;28;20038;-71
2022/11/14 05:28:59;;;;;;;132.88;31.77;;;10.50;99.90;;;;;;5028562;28;20038;-66
2022/11/14 05:31:45;;;;;;;129.43;32.08;;;10.40;99.90;;;;;;5020149;28;20513;-59
2022/11/14 05:34:31;;;;;;;143.25;30.90;;;10.40;99.90;;;;;;5014643;28;20046;-62
2022/11/14 05:37:17;;;;;;;142.98;30.08;;;10.40;99.90;;;;;;5032530;28;20041;-64
2022/11/14 05:40:05;;;;;;;145.70;30.38;;;10.40;99.90;;;;;;5012450;28;20065;-60
2022/11/14 05:42:54;;;;;;;142.57;30.58;;;10.40;99.90;;;;;;5015691;28;20042;-66
2022/11/14 05:45:40;;;;;;;160.98;33.63;;;10.40;99.90;;;;;;5013960;28;20046;-60
2022/11/14 05:48:27;;;;;;;129.48;28.88;;;10.30;99.90;;;;;;5015891;28;20466;-59
2022/11/14 05:51:13;;;;;;;133.30;29.42;;;10.30;99.90;;;;;;5026329;28;20473;-58
2022/11/14 05:53:59;;;;;;;124.72;28.80;;;10.30;99.90;;;;;;5026902;28;20445;-60
2022/11/14 05:56:46;;;;;;;125.30;29.88;;;10.40;99.90;;;;;;5017517;28;20038;-59
2022/11/14 05:59:32;;;;;;;123.40;30.67;;;10.30;99.90;;;;;;5014371;28;20497;-59
2022/11/14 06:02:18;;;;;;;167.90;32.60;;;;;;;;;;5017648;28;20049;-59
2022/11/14 06:05:05;;;;;;;124.72;28.58;;;10.30;99.90;;;;;;5006012;28;20046;-61
2022/11/14 06:07:56;;;;;;;120.90;29.67;;;10.30;99.90;;;;;;5013223;28;20056;-69
2022/11/14 06:10:42;;;;;;;123.72;28.90;;;10.30;99.90;;;;;;5023659;28;20041;-66
2022/11/14 06:13:28;;;;;;;130.35;27.83;;;10.30;99.90;;;;;;5005955;28;20058;-59
2022/11/14 06:16:17;;;;;;;121.40;28.38;;;10.30;99.90;;;;;;5007641;28;20496;-60
2022/11/14 06:19:04;;;;;;;113.97;27.40;;;10.30;99.90;;;;;;5012099;28;20381;-60
2022/11/14 06:21:50;;;;;;;105.30;28.85;;;10.20;99.90;;;;;;5025210;28;20041;-73
2022/11/14 06:24:36;;;;;;;105.30;26.70;;;10.20;99.90;;;;;;5024379;28;20041;-77
2022/11/14 06:27:22;;;;;;;105.78;28.92;;;10.20;99.90;;;;;;5012573;28;20038;-74
2022/11/14 06:30:09;;;;;;;96.78;25.85;;;10.20;99.90;;;;;;5022489;28;20053;-77
2022/11/14 06:33:00;;;;;;;107.15;27.52;;;10.20;99.90;;;;;;5014915;28;20037;-60
2022/11/14 06:35:46;;;;;;;103.25;26.55;;;10.20;99.90;;;;;;5011620;28;20053;-59
2022/11/14 06:38:35;;;;;;;108.22;25.90;;;10.20;99.90;;;;;;5014721;28;20061;-59
2022/11/14 06:41:21;;;;;;;99.38;25.15;;;10.20;99.90;;;;;;5018533;28;20049;-66
2022/11/14 06:44:08;;;;;;;101.03;26.92;;;10.10;99.90;;;;;;5021712;28;20056;-71
2022/11/14 06:46:55;;;;;;;97.32;26.02;;;10.20;99.90;;;;;;5014035;28;20572;-73
2022/11/14 06:49:44;;;;;;;89.25;25.35;;;10.20;99.90;;;;;;5018616;28;20038;-62
2022/11/14 06:52:33;;;;;;;87.47;24.30;;;10.10;99.90;;;;;;5012767;28;20399;-67
2022/11/14 06:55:19;;;;;;;94.70;24.52;;;10.10;99.90;;;;;;5017296;28;20053;-67
2022/11/14 06:58:10;;;;;;;97.10;27.17;;;10.20;99.90;;;;;;5012542;28;20036;-60
2022/11/14 07:01:01;;;;;;;106.95;27.55;;;10.20;99.90;;;;;;5007657;28;20057;-65
2022/11/14 07:03:48;;;;;;;93.43;26.10;;;10.20;99.90;;;;;;5014094;28;20045;-64
2022/11/14 07:06:34;;;;;;;90.63;25.77;;;10.20;99.90;;;;;;5010687;28;20495;-60
2022/11/14 07:09:20;;;;;;;101.60;25.25;;;10.20;99.90;;;;;;5023058;28;20041;-68
2022/11/14 07:12:08;;;;;;;88.25;23.58;;;10.10;99.90;;;;;;5013079;28;20046;-75
2022/11/14 07:14:54;;;;;;;101.82;26.05;;;10.10;99.90;;;;;;5009425;28;20049;-74
2022/11/14 07:17:41;;;;;;;98.22;25.13;;;10.10;99.90;;;;;;5021272;28;20045;-75
2022/11/14 07:20:27;;;;;;;111.43;26.00;;;10.10;99.90;;;;;;5009736;28;20045;-75
2022/11/14 07:23:14;;;;;;;96.63;25.92;;;10.10;99.90;;;;;;5019057;28;20409;-71
2022/11/14 07:26:09;;;;;;;95.68;25.23;;;10.00;99.90;;;;;;5013946;28;20038;-61
2022/11/14 07:28:56;;;;;;;101.72;26.05;;;10.00;99.90;;;;;;5014461;28;20045;-73
2022/11/14 07:31:48;;;;;;;102.50;25.38;;;10.00;99.90;;;;;;5006632;28;20044;-63
2022/11/14 07:34:34;;;;;;;95.88;24.67;;;10.00;99.90;;;;;;5018174;28;20041;-66
2022/11/14 07:37:21;;;;;;;111.15;26.77;;;10.00;99.90;;;;;;5022205;28;20046;-59
2022/11/14 07:40:08;;;;;;;101.82;26.27;;;10.00;99.90;;;;;;5009245;28;20045;-59
2022/11/14 07:42:59;;;;;;;98.97;24.17;;;10.10;99.90;;;;;;5019812;28;20041;-69
2022/11/14 07:45:45;;;;;;;84.97;25.13;;;10.00;99.90;;;;;;5022909;28;20049;-72
2022/11/14 07:48:31;;;;;;;93.03;25.35;;;10.00;99.90;;;;;;5009209;28;20049;-59
2022/11/14 07:51:19;;;;;;;93.47;25.90;;;10.00;99.90;;;;;;5013064;28;20397;-59
2022/11/14 07:54:06;;;;;;;97.28;24.48;;;10.10;99.90;;;;;;5011349;28;20508;-59
2022/11/14 07:56:52;;;;;;;92.50;23.98;;;10.20;99.90;;;;;;5016572;28;20041;-60
2022/11/14 07:59:38;;;;;;;102.38;25.48;;;10.20;99.90;;;;;;5015969;28;20041;-59
2022/11/14 08:02:24;;;;;;;86.15;23.58;;;10.20;99.90;;;;;;5006702;28;20429;-59
2022/11/14 08:05:10;;;;;;;102.13;23.92;;;10.20;99.90;;;;;;5003710;28;20057;-73
2022/11/14 08:07:56;;;;;;;93.72;24.67;;;10.20;99.90;;;;;;5009335;28;20053;-68
2022/11/14 08:10:42;;;;;;;91.65;23.92;;;10.20;99.90;;;;;;5009429;28;20045;-63
2022/11/14 08:13:30;;;;;;;85.78;24.45;;;10.20;99.90;;;;;;5002395;28;20041;-73
2022/11/14 08:16:18;;;;;;;104.68;24.17;;;10.20;99.90;;;;;;5017768;28;20045;-62
2022/11/14 08:19:04;;;;;;;89.68;24.85;;;10.20;99.90;;;;;;5019836;28;20049;-72
2022/11/14 08:21:50;;;;;;;85.93;26.10;;;10.20;99.90;;;;;;5011255;28;20052;-59
2022/11/14 08:24:37;;;;;;;89.80;24.10;;;10.20;99.90;;;;;;5008519;28;20414;-82
2022/11/14 08:27:23;;;;;;;101.88;26.33;;;10.20;99.90;;;;;;5008223;28;20406;-73
2022/11/14 08:30:11;;;;;;;107.78;25.20;;;10.20;99.90;;;;;;5003878;28;20038;-76
2022/11/14 08:33:01;;;;;;;97.60;24.38;;;10.20;99.90;;;;;;5014752;28;20049;-58
2022/11/14 08:35:47;;;;;;;91.88;23.20;;;10.20;99.90;;;;;;5027803;28;20042;-61
2022/11/14 08:38:34;;;;;;;92.95;23.50;;;10.20;99.90;;;;;;5019488;28;20038;-69
2022/11/14 08:41:20;;;;;;;96.75;23.88;;;10.20;99.90;;;;;;5007288;28;20652;-60
2022/11/14 08:44:06;;;;;;;95.90;23.52;;;10.20;99.90;;;;;;5016393;28;20038;-65
2022/11/14 08:46:52;;;;;;;96.75;22.42;;;10.20;99.90;;;;;;5024747;28;20242;-61
2022/11/14 08:49:39;;;;;;;98.22;24.17;;;10.20;99.90;;;;;;5014289;28;20053;-61
2022/11/14 08:52:25;;;;;;;94.20;24.25;;;10.30;99.90;;;;;;5009507;28;20060;-58
2022/11/14 08:55:11;;;;;;;95.43;22.95;;;10.30;99.90;;;;;;5009830;28;20038;-66
2022/11/14 08:57:58;;;;;;;95.85;23.73;;;10.30;99.90;;;;;;5021367;28;20512;-68
2022/11/14 09:00:45;;;;;;;81.65;24.17;;;10.30;99.90;;;;;;5013516;28;20486;-59
2022/11/14 09:03:32;;;;;;;97.43;24.30;;;10.30;99.90;;;;;;5027703;28;20504;-59
2022/11/14 09:06:18;;;;;;;91.72;24.13;;;10.30;99.90;;;;;;5029111;28;20515;-59
2022/11/14 09:09:05;;;;;;;85.88;24.83;;;10.30;99.90;;;;;;5026828;28;20037;-59
2022/11/14 09:11:51;;;;;;;89.82;23.15;;;10.30;99.90;;;;;;5011316;28;20421;-63
2022/11/14 09:14:37;;;;;;;98.20;23.58;;;10.30;99.90;;;;;;5025421;28;20072;-60
2022/11/14 09:17:24;;;;;;;92.57;23.92;;;;;;;;;;5022203;28;20041;-63
2022/11/14 09:20:10;;;;;;;94.38;23.40;;;10.40;99.90;;;;;;5031022;28;20061;-80
2022/11/14 09:22:58;;;;;;;97.97;24.92;;;10.40;99.90;;;;;;5022464;28;20493;-63
2022/11/14 09:25:44;;;;;;;106.28;25.75;;;10.50;99.90;;;;;;5011804;28;20037;-69
2022/11/14 09:28:31;;;;;;;81.85;24.20;;;10.60;99.90;;;;;;5018934;28;20467;-75
2022/11/14 09:31:17;;;;;;;91.32;23.77;;;10.60;99.90;;;;;;5024495;28;20038;-69
2022/11/14 09:34:04;;;;;;;77.40;22.98;;;10.70;99.90;;;;;;5029299;28;20056;-65
2022/11/14 09:36:50;;;;;;;78.32;22.38;;;10.70;99.90;;;;;;5028923;28;20662;-63
2022/11/14 09:39:39;;;;;;;63.47;19.92;;;;;;;;;;5028740;28;20042;-66
2022/11/14 09:42:51;;;;;;;72.30;20.90;;;10.70;99.90;;;;;;5020714;28;20492;-64
2022/11/14 09:45:46;;;;;;;68.15;21.95;;;10.70;99.90;;;;;;5012905;28;20046;-67
2022/11/14 09:48:32;;;;;;;76.88;22.67;;;10.80;99.90;;;;;;5022378;28;20046;-62
2022/11/14 09:51:22;;;;;;;70.18;19.98;;;10.80;99.90;;;;;;5020551;28;20049;-62
2022/11/14 09:54:16;;;;;;;70.75;20.05;;;10.80;99.90;;;;;;5020571;28;20046;-62
2022/11/14 09:57:08;;;;;;;58.35;18.85;;;10.90;99.90;;;;;;5021733;28;20651;-61
2022/11/14 09:59:55;;;;;;;59.17;18.55;;;10.90;99.90;;;;;;5022377;28;20037;-74
2022/11/14 10:02:56;;;;;;;55.25;18.50;;;10.90;99.90;;;;;;5024880;28;20050;-62
2022/11/14 10:05:57;;;;;;;53.38;18.75;;;10.90;99.90;;;;;;5007204;28;20524;-63
2022/11/14 10:09:06;;;;;;;50.95;16.85;;;10.90;99.90;;;;;;5019671;28;20496;-76
2022/11/14 10:12:03;;;;;;;57.35;17.20;;;11.00;99.90;;;;;;5008128;28;20045;-61
2022/11/14 10:15:12;;;;;;;50.75;16.13;;;11.00;99.90;;;;;;5025819;28;20402;-72
2022/11/14 10:18:22;;;;;;;46.97;16.08;;;11.30;99.90;;;;;;5013704;28;20061;-64
2022/11/14 10:21:27;;;;;;;46.35;16.13;;;11.10;99.90;;;;;;5010069;28;20049;-58
2022/11/14 10:24:50;;;;;;;44.95;14.57;;;11.10;99.90;;;;;;5019473;28;20528;-66
2022/11/14 10:28:08;;;;;;;49.08;17.00;;;11.10;99.90;;;;;;5012870;28;20076;-61
2022/11/14 10:31:37;;;;;;;49.30;16.63;;;11.80;99.90;;;;;;5021261;28;20045;-63
2022/11/14 10:34:36;;;;;;;46.45;15.90;;;11.20;99.90;;;;;;4991435;28;20084;-60
2022/11/14 10:37:30;;;;;;;44.55;15.32;;;11.30;99.90;;;;;;5010905;28;20041;-62
2022/11/14 10:40:28;;;;;;;41.83;13.80;;;11.20;99.90;;;;;;5027374;28;20045;-60
2022/11/14 10:43:23;;;;;;;37.47;14.38;;;11.30;99.90;;;;;;5016660;28;20053;-66
2022/11/14 10:46:18;;;;;;;43.45;14.77;;;11.20;99.90;;;;;;5014854;28;20526;-63
2022/11/14 10:49:19;;;;;;;44.83;15.20;;;11.80;99.90;;;;;;5012173;28;20053;-61
2022/11/14 10:52:36;;;;;;;37.83;13.80;;;11.20;99.90;;;;;;5008262;28;20576;-60
2022/11/14 10:55:23;;;;;;;39.75;13.07;;;11.20;99.90;;;;;;5005863;28;20049;-61
2022/11/14 10:58:30;;;;;;;48.55;13.98;;;11.20;99.90;;;;;;5016368;28;20139;-59
2022/11/14 11:01:33;;;;;;;43.35;13.00;;;11.30;99.90;;;;;;5014008;28;20049;-58
2022/11/14 11:04:20;;;;;;;39.22;14.25;;;11.30;99.90;;;;;;5028324;28;20397;-58
2022/11/14 11:07:06;;;;;;;40.90;13.98;;;11.40;99.90;;;;;;5005638;28;20034;-58
2022/11/14 11:13:04;;;;;;;43.78;14.50;;;11.40;99.90;;;;;;5007497;28;20038;-58
2022/11/14 11:15:56;;;;;;;37.88;13.73;;;11.40;99.90;;;;;;5012207;28;20049;-59
2022/11/14 11:18:42;;;;;;;38.35;12.98;;;11.40;99.90;;;;;;5009170;28;20045;-65
2022/11/14 11:21:54;;;;;;;38.22;13.43;;;11.40;99.90;;;;;;5003897;28;20516;-59
2022/11/14 11:24:40;;;;;;;40.20;13.90;;;11.40;99.90;;;;;;5016454;28;20036;-58
2022/11/14 11:27:28;;;;;;;39.53;14.77;;;11.40;99.90;;;;;;5021558;28;20068;-64
2022/11/14 11:30:18;;;;;;;37.13;13.07;;;11.50;99.90;;;;;;5008061;28;20489;-73
2022/11/14 11:33:14;;;;;;;;;;;11.50;99.90;;;;;;5013890;28;20054;-65
2022/11/14 11:36:09;;;;;;;37.92;12.75;;;11.50;99.90;;;;;;5028613;28;19928;-78
2022/11/14 11:38:56;;;;;;;41.22;13.98;;;11.40;99.90;;;;;;5016522;28;20486;-72
2022/11/14 11:41:44;;;;;;;43.75;14.88;;;11.40;99.90;;;;;;5011799;28;20045;-77
2022/11/14 11:44:57;;;;;;;41.92;13.80;;;11.40;99.90;;;;;;5016725;28;20382;-72
2022/11/14 11:47:53;;;;;;;41.70;13.68;;;11.40;99.90;;;;;;5023724;28;20053;-58
2022/11/14 11:50:40;;;;;;;42.38;13.77;;;11.40;99.90;;;;;;5025876;28;20073;-69
2022/11/14 11:53:35;;;;;;;43.25;13.45;;;11.40;99.90;;;;;;5022750;28;20049;-64
2022/11/14 11:56:25;;;;;;;41.90;14.05;;;11.40;99.90;;;;;;5011572;28;20052;-67
2022/11/14 11:59:20;;;;;;;38.95;14.40;;;11.50;99.90;;;;;;5023786;28;20048;-76
2022/11/14 12:02:23;;;;;;;40.75;13.85;;;11.50;99.90;;;;;;5028020;28;20056;-64
2022/11/14 12:05:32;;;;;;;38.92;13.32;;;11.50;99.90;;;;;;5011900;28;20057;-66
2022/11/14 12:08:24;;;;;;;32.90;12.88;;;11.50;99.90;;;;;;5025408;28;20508;-69
2022/11/14 12:11:16;;;;;;;32.45;12.70;;;11.50;99.90;;;;;;5010334;28;20042;-77
2022/11/14 12:14:34;;;;;;;42.13;13.98;;;11.50;99.90;;;;;;5024243;28;20042;-69
2022/11/14 12:17:43;;;;;;;42.10;15.40;;;11.50;99.90;;;;;;5015179;28;20049;-63
2022/11/14 12:20:38;;;;;;;36.63;13.48;;;11.60;99.90;;;;;;5007984;28;20064;-60
2022/11/14 12:23:51;;;;;;;36.90;13.63;;;11.60;99.90;;;;;;5015271;28;20053;-58
2022/11/14 12:26:53;;;;;;;42.30;14.70;;;11.60;99.90;;;;;;5005242;28;20838;-77
2022/11/14 12:30:20;;;;;;;43.80;14.75;;;11.70;99.90;;;;;;5019091;28;20045;-81
2022/11/14 12:33:15;;;;;;;36.75;13.35;;;11.70;99.90;;;;;;5007311;28;20034;-65
2022/11/14 12:36:06;;;;;;;31.23;11.80;;;11.80;99.90;;;;;;5017533;28;20053;-60
2022/11/14 12:38:54;;;;;;;35.88;12.70;;;11.70;99.90;;;;;;5020757;28;20052;-67
2022/11/14 12:41:41;;;;;;;31.80;10.63;;;11.80;99.90;;;;;;5017623;28;20489;-74
2022/11/14 12:44:27;;;;;;;29.42;11.95;;;11.80;99.90;;;;;;5018178;28;20042;-66
2022/11/14 12:47:20;;;;;;;31.23;11.93;;;11.90;99.90;;;;;;5011887;28;20505;-61
2022/11/14 12:50:38;;;;;;;31.88;11.85;;;11.80;99.90;;;;;;5010789;28;20033;-62
2022/11/14 12:53:36;;;;;;;25.92;11.00;;;11.90;99.90;;;;;;5017329;28;20045;-64
2022/11/14 12:56:29;;;;;;;29.70;11.93;;;11.90;99.90;;;;;;5012826;28;20045;-68
2022/11/14 12:59:18;;;;;;;31.65;11.63;;;11.90;99.90;;;;;;5018424;28;20048;-63
2022/11/14 13:02:46;;;;;;;26.83;11.00;;;11.90;99.90;;;;;;5011543;28;20049;-60
2022/11/14 13:05:32;;;;;;;28.10;10.80;;;12.00;99.90;;;;;;5011580;28;20298;-62
2022/11/14 13:08:42;;;;;;;24.58;10.90;;;12.00;99.90;;;;;;5023276;28;20402;-62
2022/11/14 13:21:45;;;;;;;29.55;12.23;;;12.10;99.90;;;;;;5013135;28;20042;-60
2022/11/14 13:25:02;;;;;;;25.75;11.43;;;12.10;99.90;;;;;;5020800;28;20414;-61
2022/11/14 13:27:49;;;;;;;27.98;11.45;;;12.20;99.90;;;;;;5019601;28;20053;-60
2022/11/14 13:31:14;;;;;;;26.95;11.27;;;12.30;99.90;;;;;;5013830;28;20037;-60
2022/11/14 13:34:42;;;;;;;26.92;11.65;;;12.30;99.90;;;;;;5027618;28;20049;-61
2022/11/14 13:37:50;;;;;;;27.48;11.55;;;12.30;99.90;;;;;;5017289;28;20045;-61
2022/11/14 13:40:52;;;;;;;27.52;11.38;;;12.30;99.90;;;;;;5009376;28;20502;-61
2022/11/14 13:43:59;;;;;;;30.15;12.10;;;12.30;99.90;;;;;;5013279;28;20425;-61
2022/11/14 13:47:09;;;;;;;30.23;13.52;;;12.30;99.90;;;;;;5019139;28;20061;-61
2022/11/14 13:50:11;;;;;;;34.42;12.43;;;12.30;99.90;;;;;;5010658;28;20038;-61
2022/11/14 13:52:58;;;;;;;33.80;12.10;;;12.30;99.90;;;;;;5023483;28;20041;-60
2022/11/14 13:56:03;;;;;;;34.00;13.63;;;12.30;99.90;;;;;;5021155;28;20049;-61
2022/11/14 13:58:52;;;;;;;29.75;12.93;;;12.40;99.90;;;;;;5022569;28;20060;-61
2022/11/14 14:02:10;;;;;;;28.98;12.07;;;12.40;99.90;;;;;;5017133;28;20060;-58
2022/11/14 14:05:18;;;;;;;33.22;13.15;;;12.40;99.90;;;;;;4998519;28;20568;-61
2022/11/14 14:08:23;;;;;;;34.97;13.05;;;12.40;99.90;;;;;;5013735;28;20056;-64
2022/11/14 14:11:27;;;;;;;34.80;14.02;;;12.40;99.90;;;;;;5007490;28;20041;-60
2022/11/14 14:14:35;;;;;;;31.15;13.77;;;12.40;99.90;;;;;;5027022;28;20057;-66
2022/11/14 14:17:26;;;;;;;33.10;13.25;;;12.50;99.90;;;;;;5011363;28;20045;-69
2022/11/14 14:20:27;;;;;;;31.20;12.88;;;12.50;99.90;;;;;;5028955;28;20041;-62
2022/11/14 14:23:50;;;;;;;34.28;14.90;;;12.50;99.90;;;;;;5025934;28;20236;-68
2022/11/14 14:26:45;;;;;;;36.03;15.20;;;12.50;99.90;;;;;;5009121;28;20046;-63
2022/11/14 14:30:01;;;;;;;32.30;13.05;;;12.50;99.90;;;;;;5010731;28;20038;-61
2022/11/14 14:33:13;;;;;;;36.88;13.82;;;12.50;99.90;;;;;;5015967;28;20516;-61
2022/11/14 14:35:59;;;;;;;28.10;12.45;;;12.50;99.90;;;;;;5009395;28;20044;-61
2022/11/14 14:38:46;;;;;;;26.15;12.32;;;12.50;99.90;;;;;;5021198;28;20595;-64